Ana Sayfa
METAR-TAF:

METAR-TAF

Havaalanları :

Auburn/Lewiston Municipal Airport

Auburn / Lewiston, Maine, Amerika Birleşik Devletleri

Enlem: 44-03N, Boylam: 070-17W, yükseklik: 88 m

Güncel hava durumu gözlemi

Rapor saat 04:56 UTC de 20 dakika önce yapıldı.
Rüzgar güneybatıdan 6 kt
Sıcaklık 19°C
Nem 64%
Basınç 1009 hPa
Görüş mesafesi: 16.1 km
Açık gökyüzü

METAR: KLEW 160456Z AUTO 22006KT 10SM CLR 19/12 A2980 RMK AO2 SLP104 P0001 T01940122

Saat: 01:16 (05:16 UTC)


TAF: eksik

4.000'den fazla havaalanı için hava durumu gözlemleri ve tahminleri (METAR ve TAF raporları).

Kullanılabilir istasyonlar harita üzerinde sarı ve kırmızı noktalarla gösterilir.

İstasyonun adını görmek için fareyi noktanın üzerinde gezdirin.

Sonrasında hava gözlem ve tahminlerini görmek için tıklayın.

Haritayı değiştirmek için: yaklaştırmak için siyah artı işaretli yeşil düğmeye ve uzaklaştırmak için de eksi işaretli düğmeye hızla tıklayın; bitişik haritalar için yeşil okları kullanın.


METAR-TAF: